createdAt,value
2018-12-23T00:00:02.576Z,1007.85
2018-12-23T00:01:02.563Z,1007.86
2018-12-23T00:02:02.551Z,1007.88
2018-12-23T00:03:02.562Z,1007.87
2018-12-23T00:04:02.529Z,1007.89
2018-12-23T00:05:02.518Z,1007.85
2018-12-23T00:06:02.504Z,1007.85
2018-12-23T00:07:02.495Z,1007.85
2018-12-23T00:08:02.500Z,1007.85
2018-12-23T00:09:02.493Z,1007.86
2018-12-23T00:10:02.458Z,1007.89
2018-12-23T00:11:02.446Z,1007.91
2018-12-23T00:12:02.440Z,1007.87
2018-12-23T00:13:02.444Z,1007.89
2018-12-23T00:14:02.413Z,1007.96
2018-12-23T00:15:02.401Z,1007.86
2018-12-23T00:16:02.388Z,1007.94
2018-12-23T00:17:02.377Z,1007.88
2018-12-23T00:18:02.384Z,1007.86
2018-12-23T00:19:02.354Z,1007.91
2018-12-23T00:20:02.341Z,1007.90
2018-12-23T00:21:02.334Z,1007.90
2018-12-23T00:22:02.322Z,1007.88
2018-12-23T00:23:02.325Z,1007.82
2018-12-23T00:24:02.294Z,1007.86
2018-12-23T00:25:02.287Z,1007.89
2018-12-23T00:26:02.273Z,1007.94
2018-12-23T00:27:02.268Z,1008.00
2018-12-23T00:28:02.266Z,1007.91
2018-12-23T00:29:02.303Z,1007.97
2018-12-23T00:30:02.224Z,1007.93
2018-12-23T00:31:02.215Z,1007.94
2018-12-23T00:32:02.202Z,1008.00
2018-12-23T00:33:02.213Z,1007.96
2018-12-23T00:34:02.183Z,1008.04
2018-12-23T00:35:02.168Z,1007.98
2018-12-23T00:36:02.155Z,1008.07
2018-12-23T00:37:02.144Z,1008.01
2018-12-23T00:38:02.150Z,1008.04
2018-12-23T00:39:02.120Z,1008.07
2018-12-23T00:40:02.110Z,1008.05
2018-12-23T00:41:02.096Z,1008.08
2018-12-23T00:42:02.084Z,1008.13
2018-12-23T00:43:02.093Z,1008.07
2018-12-23T00:44:02.063Z,1008.11
2018-12-23T00:45:02.050Z,1008.15
2018-12-23T00:46:02.038Z,1008.14
2018-12-23T00:47:02.032Z,1008.12
2018-12-23T00:48:02.032Z,1008.15
2018-12-23T00:49:02.002Z,1008.21
2018-12-23T00:50:01.992Z,1008.17
2018-12-23T00:51:02.036Z,1008.14
2018-12-23T00:52:01.967Z,1008.01
2018-12-23T00:53:01.998Z,1008.01
2018-12-23T00:54:01.944Z,1007.95
2018-12-23T00:55:01.932Z,1007.91
2018-12-23T00:56:01.921Z,1008.06
2018-12-23T00:57:01.908Z,1007.99
2018-12-23T00:58:01.911Z,1008.05
2018-12-23T00:59:01.904Z,1008.06
2018-12-23T01:00:01.872Z,1008.02
2018-12-23T01:01:01.861Z,1008.01
2018-12-23T01:02:01.851Z,1008.00
2018-12-23T01:03:01.838Z,1008.07
2018-12-23T01:04:01.843Z,1008.07
2018-12-23T01:05:01.824Z,1008.10
2018-12-23T01:06:01.808Z,1008.07
2018-12-23T01:07:01.791Z,1008.09
2018-12-23T01:08:01.776Z,1008.19
2018-12-23T01:09:01.794Z,1008.16
2018-12-23T01:10:01.755Z,1008.14
2018-12-23T01:11:01.744Z,1008.04
2018-12-23T01:12:01.730Z,1008.06
2018-12-23T01:13:01.740Z,1008.06
2018-12-23T01:14:01.706Z,1008.08
2018-12-23T01:15:01.726Z,1008.16
2018-12-23T01:16:01.684Z,1008.16
2018-12-23T01:17:01.676Z,1008.18
2018-12-23T01:18:01.660Z,1008.24
2018-12-23T01:19:01.649Z,1008.21
2018-12-23T01:20:01.656Z,1008.16
2018-12-23T01:21:01.627Z,1008.14
2018-12-23T01:22:01.615Z,1008.12
2018-12-23T01:23:01.624Z,1008.14
2018-12-23T01:24:01.592Z,1008.11
2018-12-23T01:25:01.601Z,1008.14
2018-12-23T01:26:01.567Z,1008.14
2018-12-23T01:27:01.573Z,1008.13
2018-12-23T08:44:32.428Z,1007.69
2018-12-23T08:45:32.401Z,1007.76
2018-12-23T08:46:39.181Z,1007.77
2018-12-23T08:47:33.402Z,1007.73
2018-12-23T08:48:32.367Z,1007.75
2018-12-23T08:49:32.354Z,1007.73
2018-12-23T08:50:32.344Z,1007.71
2018-12-23T08:51:32.337Z,1007.75
2018-12-23T08:52:32.345Z,1007.76
2018-12-23T08:53:32.309Z,1007.76
2018-12-23T08:54:32.298Z,1007.78
2018-12-23T08:55:32.289Z,1007.78
2018-12-23T08:56:32.275Z,1007.79
2018-12-23T08:57:32.264Z,1007.79
2018-12-23T08:58:32.271Z,1007.74
2018-12-23T08:59:32.241Z,1007.77
2018-12-23T09:00:32.229Z,1007.74
2018-12-23T09:01:32.219Z,1007.76
2018-12-23T09:02:32.206Z,1007.76
2018-12-23T09:03:32.213Z,1007.76
2018-12-23T09:04:32.185Z,1007.75
2018-12-23T09:05:32.175Z,1007.77
2018-12-23T09:06:32.161Z,1007.77
2018-12-23T09:07:32.150Z,1007.75
2018-12-23T09:08:32.156Z,1007.77
2018-12-23T09:09:32.126Z,1007.83
2018-12-23T09:10:32.183Z,1007.82
2018-12-23T09:11:32.105Z,1007.75
2018-12-23T09:12:32.092Z,1007.80
2018-12-23T09:13:32.103Z,1007.80
2018-12-23T09:14:32.070Z,1007.76
2018-12-23T09:15:32.059Z,1007.77
2018-12-23T09:16:32.048Z,1007.71
2018-12-23T09:17:32.109Z,1007.68
2018-12-23T09:18:32.024Z,1007.70
2018-12-23T09:19:32.031Z,1007.71
2018-12-23T09:20:32.006Z,1007.70
2018-12-23T09:21:31.988Z,1007.72
2018-12-23T09:22:31.976Z,1007.63
2018-12-23T09:23:31.964Z,1007.62
2018-12-23T09:24:31.975Z,1007.61
2018-12-23T09:25:31.942Z,1007.66
2018-12-23T09:26:31.931Z,1007.67
2018-12-23T09:27:31.919Z,1007.63
2018-12-23T09:28:31.907Z,1007.71
2018-12-23T09:29:31.914Z,1007.72
2018-12-23T09:30:31.883Z,1007.72
2018-12-23T09:31:31.875Z,1007.70
2018-12-23T09:32:31.860Z,1007.66
2018-12-23T09:33:31.870Z,1007.65
2018-12-23T09:34:31.838Z,1007.67
2018-12-23T09:35:31.825Z,1007.65
2018-12-23T09:36:31.814Z,1007.54
2018-12-23T09:37:31.803Z,1007.55
2018-12-23T09:38:31.812Z,1007.53
2018-12-23T09:39:31.779Z,1007.55
2018-12-23T09:40:31.768Z,1007.58
2018-12-23T09:41:31.756Z,1007.55
2018-12-23T09:42:31.743Z,1007.55
2018-12-23T09:43:31.732Z,1007.57
2018-12-23T09:44:31.744Z,1007.51
2018-12-23T09:45:31.710Z,1007.54
2018-12-23T09:46:31.705Z,1007.49
2018-12-23T09:47:31.687Z,1007.50
2018-12-23T09:48:31.675Z,1007.51
2018-12-23T09:49:31.682Z,1007.53
2018-12-23T09:50:31.652Z,1007.47
2018-12-23T09:51:31.640Z,1007.50
2018-12-23T09:52:31.628Z,1007.49
2018-12-23T09:53:31.618Z,1007.56
2018-12-23T09:54:31.627Z,1007.49
2018-12-23T09:55:31.596Z,1007.48
2018-12-23T09:56:31.582Z,1007.48
2018-12-23T09:57:31.571Z,1007.46
2018-12-23T09:58:31.557Z,1007.42
2018-12-23T09:59:31.564Z,1007.42
2018-12-23T10:00:31.541Z,1007.43
2018-12-23T10:01:31.524Z,1007.42
2018-12-23T10:02:33.475Z,1007.43
2018-12-23T10:03:31.500Z,1007.39
2018-12-23T10:04:31.511Z,1007.24
2018-12-23T10:05:31.477Z,1007.26
2018-12-23T10:06:31.465Z,1007.26
2018-12-23T10:07:31.454Z,1007.25
2018-12-23T10:08:31.442Z,1007.24
2018-12-23T10:09:31.450Z,1007.23
2018-12-23T10:10:31.418Z,1007.23
2018-12-23T10:11:31.407Z,1007.23
2018-12-23T10:12:31.401Z,1007.20
2018-12-23T10:13:31.385Z,1007.15
2018-12-23T10:14:31.390Z,1007.15
2018-12-23T10:15:31.360Z,1007.16
2018-12-23T10:16:31.351Z,1007.20
2018-12-23T10:17:31.337Z,1007.08
2018-12-23T10:18:31.327Z,1007.13
2018-12-23T10:19:31.333Z,1007.05
2018-12-23T10:20:31.303Z,1007.10
2018-12-23T10:21:31.290Z,1007.06
2018-12-23T10:22:31.279Z,1007.05
2018-12-23T10:23:31.269Z,1007.02
2018-12-23T10:24:31.279Z,1006.98
2018-12-23T10:25:31.244Z,1006.99
2018-12-23T10:26:31.232Z,1006.97
2018-12-23T10:27:31.221Z,1006.99
2018-12-23T10:28:31.209Z,1006.98
2018-12-23T10:29:31.198Z,1006.95
2018-12-23T10:30:31.208Z,1006.93
2018-12-23T10:31:31.173Z,1006.99
2018-12-23T10:32:31.163Z,1006.90
2018-12-23T10:33:31.270Z,1006.96
2018-12-23T10:34:33.173Z,1006.91
2018-12-23T10:35:31.146Z,1006.88
2018-12-23T10:36:31.116Z,1006.86
2018-12-23T10:37:31.109Z,1006.90
2018-12-23T10:38:31.092Z,1006.84
2018-12-23T10:39:31.087Z,1006.87
2018-12-23T10:40:31.091Z,1006.79
2018-12-23T10:41:31.057Z,1006.79
2018-12-23T10:42:31.049Z,1006.79
2018-12-23T10:43:31.036Z,1006.79
2018-12-23T10:44:31.023Z,1006.78
2018-12-23T10:45:31.030Z,1006.82
2018-12-23T10:46:31.007Z,1006.77
2018-12-23T10:47:30.988Z,1006.76
2018-12-23T10:48:30.977Z,1006.73
2018-12-23T10:49:30.965Z,1006.70
2018-12-23T10:50:30.973Z,1006.67
2018-12-23T10:51:30.941Z,1006.66
2018-12-23T10:52:30.930Z,1006.65
2018-12-23T10:53:30.919Z,1006.66
2018-12-23T10:54:30.907Z,1006.67
2018-12-23T10:55:30.916Z,1006.65
2018-12-23T10:56:30.883Z,1006.60
2018-12-23T10:57:30.873Z,1006.60
2018-12-23T10:58:30.864Z,1006.58
2018-12-23T10:59:30.850Z,1006.55
2018-12-23T11:00:30.861Z,1006.51
2018-12-23T11:01:30.826Z,1006.42
2018-12-23T11:02:30.815Z,1006.33
2018-12-23T11:03:30.803Z,1006.43
2018-12-23T11:04:30.791Z,1006.41
2018-12-23T11:05:30.779Z,1006.40
2018-12-23T11:06:30.786Z,1006.34
2018-12-23T11:07:30.757Z,1006.37
2018-12-23T11:08:30.746Z,1006.35
2018-12-23T11:09:30.734Z,1006.26
2018-12-23T11:10:30.723Z,1006.31
2018-12-23T11:11:30.731Z,1006.29
2018-12-23T11:12:30.702Z,1006.26
2018-12-23T11:13:30.688Z,1006.21
2018-12-23T11:14:30.676Z,1006.22
2018-12-23T11:15:30.664Z,1006.16
2018-12-23T11:16:30.670Z,1006.13
2018-12-23T11:17:30.649Z,1006.10
2018-12-23T11:18:30.628Z,1006.10
2018-12-23T11:19:30.620Z,1006.12
2018-12-23T11:20:30.622Z,1006.07
2018-12-23T11:21:30.620Z,1006.05
2018-12-23T11:22:30.607Z,1005.95
2018-12-23T11:23:30.569Z,1005.92
2018-12-23T11:24:30.557Z,1005.90
2018-12-23T11:25:30.565Z,1005.89
2018-12-23T11:26:30.536Z,1005.87
2018-12-23T11:27:30.524Z,1005.86
2018-12-23T11:28:30.563Z,1005.80
2018-12-23T11:29:30.500Z,1005.83
2018-12-23T11:30:30.506Z,1005.85
2018-12-23T11:31:30.477Z,1005.80
2018-12-23T11:32:30.466Z,1005.75
2018-12-23T11:33:30.452Z,1005.77
2018-12-23T11:34:30.442Z,1005.76
2018-12-23T11:35:30.469Z,1005.84
2018-12-23T11:36:30.427Z,1005.85
2018-12-23T11:37:30.408Z,1005.78
2018-12-23T11:38:35.435Z,1005.75
2018-12-23T11:39:31.383Z,1005.81
2018-12-23T11:40:30.373Z,1005.78
2018-12-23T11:41:30.382Z,1005.61
2018-12-23T11:42:30.350Z,1005.65
2018-12-23T11:43:30.337Z,1005.62
2018-12-23T11:44:30.328Z,1005.56
2018-12-23T11:45:30.314Z,1005.55
2018-12-23T11:46:30.327Z,1005.52
2018-12-23T11:47:30.294Z,1005.54
2018-12-23T11:48:30.280Z,1005.54
2018-12-23T11:49:30.279Z,1005.53
2018-12-23T11:50:30.261Z,1005.60
2018-12-23T11:51:30.248Z,1005.53
2018-12-23T11:52:30.252Z,1005.51
2018-12-23T11:53:30.222Z,1005.44
2018-12-23T11:54:30.210Z,1005.55
2018-12-23T11:55:30.199Z,1005.45
2018-12-23T11:56:30.188Z,1005.38
2018-12-23T11:57:30.199Z,1005.37
2018-12-23T11:58:30.166Z,1005.36
2018-12-23T11:59:30.152Z,1005.31
2018-12-23T12:00:30.141Z,1005.29
2018-12-23T12:01:30.129Z,1005.33
2018-12-23T12:02:30.136Z,1005.32
2018-12-23T12:03:30.106Z,1005.39
2018-12-23T12:04:30.094Z,1005.34
2018-12-23T12:05:30.083Z,1005.40
2018-12-23T12:06:30.071Z,1005.32
2018-12-23T12:07:30.083Z,1005.35
2018-12-23T12:08:30.049Z,1005.32
2018-12-23T12:09:30.040Z,1005.32
2018-12-23T12:10:30.024Z,1005.25
2018-12-23T12:11:30.012Z,1005.18
2018-12-23T12:12:30.002Z,1005.23
2018-12-23T12:13:30.008Z,1005.23
2018-12-23T12:14:29.982Z,1005.23
2018-12-23T12:15:29.969Z,1005.20
2018-12-23T12:16:29.956Z,1005.17
2018-12-23T12:17:29.951Z,1005.21
2018-12-23T12:18:29.953Z,1005.16
2018-12-23T12:19:29.923Z,1005.17
2018-12-23T12:20:29.912Z,1005.17
2018-12-23T12:21:29.909Z,1005.16
2018-12-23T12:22:29.888Z,1005.10
2018-12-23T12:23:29.894Z,1005.11
2018-12-23T12:24:29.865Z,1005.04
2018-12-23T12:25:29.855Z,1005.03
2018-12-23T12:26:29.960Z,1005.04
2018-12-23T12:27:29.832Z,1004.96
2018-12-23T12:28:29.835Z,1005.00
2018-12-23T12:29:29.803Z,1005.00
2018-12-23T12:30:29.793Z,1004.97
2018-12-23T12:31:29.780Z,1004.95
2018-12-23T12:32:29.768Z,1004.98
2018-12-23T12:33:29.777Z,1004.94
2018-12-23T12:34:29.746Z,1004.97
2018-12-23T12:35:29.735Z,1004.97
2018-12-23T12:36:29.723Z,1004.96
2018-12-23T12:37:29.712Z,1004.94
2018-12-23T12:38:29.723Z,1004.96
2018-12-23T12:39:29.689Z,1004.97
2018-12-23T12:40:29.679Z,1004.93
2018-12-23T12:41:29.667Z,1004.96
2018-12-23T12:42:29.657Z,1004.91
2018-12-23T12:43:29.645Z,1004.86
2018-12-23T12:44:29.650Z,1004.89
2018-12-23T12:45:29.620Z,1004.91
2018-12-23T12:46:29.609Z,1004.93
2018-12-23T12:47:29.603Z,1004.92
2018-12-23T12:48:29.587Z,1004.91
2018-12-23T12:49:29.594Z,1004.85
2018-12-23T12:50:29.562Z,1004.84
2018-12-23T12:51:29.551Z,1004.75
2018-12-23T12:52:29.541Z,1004.76
2018-12-23T12:53:29.551Z,1004.71
2018-12-23T12:54:29.518Z,1004.85
2018-12-23T12:55:29.505Z,1004.80
2018-12-23T12:56:29.497Z,1004.86
2018-12-23T12:57:29.483Z,1004.84
2018-12-23T12:58:29.492Z,1004.76
2018-12-23T12:59:29.461Z,1004.80
2018-12-23T13:00:29.449Z,1004.78
2018-12-23T13:01:29.441Z,1004.84
2018-12-23T13:02:29.425Z,1004.71
2018-12-23T13:03:29.414Z,1004.74
2018-12-23T13:04:29.421Z,1004.70
2018-12-23T13:05:29.442Z,1004.71
2018-12-23T13:06:29.381Z,1004.68
2018-12-23T13:07:29.372Z,1004.68
2018-12-23T13:08:29.363Z,1004.63
2018-12-23T13:09:29.366Z,1004.63
2018-12-23T13:10:29.334Z,1004.57
2018-12-23T13:11:29.324Z,1004.63
2018-12-23T13:12:29.311Z,1004.60
2018-12-23T13:13:29.303Z,1004.50
2018-12-23T13:14:29.314Z,1004.49
2018-12-23T13:15:29.278Z,1004.46
2018-12-23T13:16:29.265Z,1004.43
2018-12-23T13:17:29.254Z,1004.41
2018-12-23T13:18:29.252Z,1004.30
2018-12-23T13:19:29.234Z,1004.32
2018-12-23T13:20:29.242Z,1004.35
2018-12-23T13:21:29.210Z,1004.35
2018-12-23T13:22:29.201Z,1004.36
2018-12-23T13:23:29.186Z,1004.41
2018-12-23T13:24:29.174Z,1004.32
2018-12-23T13:25:29.184Z,1004.37
2018-12-23T13:26:29.151Z,1004.31
2018-12-23T13:27:29.141Z,1004.32
2018-12-23T13:28:29.128Z,1004.31
2018-12-23T13:29:29.117Z,1004.28
2018-12-23T13:30:29.130Z,1004.25
2018-12-23T13:31:29.093Z,1004.22
2018-12-23T13:32:29.085Z,1004.25
2018-12-23T13:33:29.071Z,1004.18
2018-12-23T13:34:29.061Z,1004.23
2018-12-23T13:35:29.071Z,1004.22
2018-12-23T13:36:29.037Z,1004.18
2018-12-23T13:37:29.028Z,1004.11
2018-12-23T13:38:29.013Z,1004.14
2018-12-23T13:39:29.009Z,1004.09
2018-12-23T13:40:28.991Z,1004.06
2018-12-23T13:41:29.000Z,1004.12
2018-12-23T13:42:28.969Z,1004.09
2018-12-23T13:43:28.956Z,1004.12
2018-12-23T13:44:28.946Z,1004.13
2018-12-23T13:45:28.974Z,1004.12
2018-12-23T13:46:28.922Z,1004.09
2018-12-23T13:47:28.915Z,1004.09
2018-12-23T13:48:28.901Z,1004.07
2018-12-23T13:49:28.897Z,1003.98
2018-12-23T13:50:28.877Z,1004.02
2018-12-23T13:51:28.884Z,1003.90
2018-12-23T13:52:28.860Z,1003.91
2018-12-23T13:53:28.845Z,1003.89
2018-12-23T13:54:28.831Z,1003.90
2018-12-23T13:55:28.845Z,1003.80
2018-12-23T13:56:28.809Z,1003.83
2018-12-23T13:57:28.807Z,1003.74
2018-12-23T13:58:28.785Z,1003.71
2018-12-23T13:59:28.776Z,1003.70
2018-12-23T14:00:28.768Z,1003.67
2018-12-23T14:01:28.771Z,1003.61
2018-12-23T14:02:28.739Z,1003.55
2018-12-23T14:03:28.732Z,1003.49
2018-12-23T14:04:28.716Z,1003.43
2018-12-23T14:05:28.724Z,1003.42
2018-12-23T14:06:28.693Z,1003.37
2018-12-23T14:07:28.682Z,1003.36
2018-12-23T14:08:28.672Z,1003.34
2018-12-23T14:09:28.660Z,1003.39
2018-12-23T14:10:28.667Z,1003.39
2018-12-23T14:11:28.637Z,1003.46
2018-12-23T14:12:28.626Z,1003.50
2018-12-23T14:13:28.614Z,1003.46
2018-12-23T14:14:28.603Z,1003.46
2018-12-23T14:15:28.611Z,1003.39
2018-12-23T14:16:28.580Z,1003.33
2018-12-23T14:17:28.569Z,1003.30
2018-12-23T14:18:28.558Z,1003.27
2018-12-23T14:19:28.548Z,1003.15
2018-12-23T14:20:28.555Z,1003.06
2018-12-23T14:21:28.525Z,1003.03
2018-12-23T14:22:28.512Z,1003.04
2018-12-23T14:23:28.502Z,1003.00
2018-12-23T14:24:28.554Z,1003.03
2018-12-23T14:25:28.518Z,1003.03
2018-12-23T14:26:28.470Z,1003.04
2018-12-23T14:27:28.455Z,1003.05
2018-12-23T14:28:28.443Z,1003.06
2018-12-23T14:29:28.433Z,1003.03
2018-12-23T14:30:28.421Z,1002.98
2018-12-23T14:31:28.428Z,1003.06
2018-12-23T14:32:28.399Z,1003.01
2018-12-23T14:33:28.386Z,1003.06
2018-12-23T14:34:28.374Z,1003.05
2018-12-23T14:35:28.366Z,1003.00
2018-12-23T14:36:28.371Z,1002.97
2018-12-23T14:37:28.341Z,1002.85
2018-12-23T14:38:28.329Z,1002.80
2018-12-23T14:39:28.673Z,1002.85
2018-12-23T14:40:28.329Z,1002.85
2018-12-23T14:41:28.299Z,1002.86
2018-12-23T14:42:28.288Z,1002.87
2018-12-23T14:43:28.272Z,1002.82
2018-12-23T14:44:28.265Z,1002.82
2018-12-23T14:45:28.250Z,1002.84
2018-12-23T14:46:28.256Z,1002.77
2018-12-23T14:47:28.226Z,1002.75
2018-12-23T14:48:28.216Z,1002.70
2018-12-23T14:49:28.209Z,1002.73
2018-12-23T14:50:28.192Z,1002.67
2018-12-23T14:51:28.199Z,1002.68
2018-12-23T14:52:28.171Z,1002.62
2018-12-23T14:53:28.159Z,1002.59
2018-12-23T14:54:28.146Z,1002.57
2018-12-23T14:55:28.140Z,1002.55
2018-12-23T14:56:28.164Z,1002.54
2018-12-23T14:57:28.117Z,1002.51
2018-12-23T14:58:28.102Z,1002.50
2018-12-23T14:59:28.091Z,1002.55
2018-12-23T15:00:28.079Z,1002.49
2018-12-23T15:01:28.068Z,1002.47
2018-12-23T15:02:28.075Z,1002.49
2018-12-23T15:03:28.046Z,1002.44
2018-12-23T15:04:28.036Z,1002.51
2018-12-23T15:05:28.023Z,1002.53
2018-12-23T15:06:28.010Z,1002.50
2018-12-23T15:07:28.017Z,1002.43
2018-12-23T15:08:27.989Z,1002.41
2018-12-23T15:09:34.240Z,1002.45
2018-12-23T15:10:28.962Z,1002.46
2018-12-23T15:11:27.956Z,1002.48
2018-12-23T15:12:27.959Z,1002.47
2018-12-23T15:13:27.932Z,1002.45
2018-12-23T15:14:27.920Z,1002.36
2018-12-23T15:15:27.911Z,1002.36
2018-12-23T15:16:27.901Z,1002.32
2018-12-23T15:17:27.929Z,1002.43
2018-12-23T15:18:27.875Z,1002.36
2018-12-23T15:19:27.863Z,1002.30
2018-12-23T15:20:27.850Z,1002.25
2018-12-23T15:21:27.840Z,1002.19
2018-12-23T15:22:27.827Z,1002.20
2018-12-23T15:23:27.838Z,1002.16
2018-12-23T15:24:27.805Z,1002.15
2018-12-23T15:25:27.800Z,1002.11
2018-12-23T15:26:27.782Z,1002.20
2018-12-23T15:27:27.771Z,1002.23
2018-12-23T15:28:27.779Z,1002.21
2018-12-23T15:29:27.748Z,1002.18
2018-12-23T15:30:27.736Z,1002.14
2018-12-23T15:31:27.726Z,1002.12
2018-12-23T15:32:27.716Z,1002.09
2018-12-23T15:33:27.720Z,1002.00
2018-12-23T15:34:27.694Z,1002.02
2018-12-23T15:35:27.717Z,1001.99
2018-12-23T15:36:27.668Z,1001.98
2018-12-23T15:37:27.660Z,1001.95
2018-12-23T15:38:29.537Z,1001.91
2018-12-23T15:39:27.635Z,1001.86
2018-12-23T15:40:27.626Z,1001.79
2018-12-23T15:41:27.614Z,1001.78
2018-12-23T15:42:27.599Z,1001.80
2018-12-23T15:43:27.589Z,1001.77
2018-12-23T15:44:27.598Z,1001.70
2018-12-23T15:45:27.566Z,1001.74
2018-12-23T15:46:27.555Z,1001.71
2018-12-23T15:47:27.587Z,1001.70
2018-12-23T15:48:27.531Z,1001.71
2018-12-23T15:49:27.537Z,1001.69
2018-12-23T15:50:27.512Z,1001.73
2018-12-23T15:51:27.499Z,1001.73
2018-12-23T15:52:27.486Z,1001.73
2018-12-23T15:53:27.482Z,1001.73
2018-12-23T15:54:27.484Z,1001.65
2018-12-23T15:55:27.451Z,1001.68
2018-12-23T15:56:27.439Z,1001.64
2018-12-23T15:57:27.465Z,1001.61
2018-12-23T15:58:27.416Z,1001.61
2018-12-23T15:59:27.425Z,1001.62
2018-12-23T16:00:27.396Z,1001.60
2018-12-23T16:01:27.471Z,1001.63
2018-12-23T16:02:27.371Z,1001.59
2018-12-23T16:03:27.359Z,1001.64
2018-12-23T16:04:27.419Z,1001.58
2018-12-23T16:05:27.336Z,1001.55
2018-12-23T16:06:27.325Z,1001.49
2018-12-23T16:07:27.316Z,1001.37
2018-12-23T16:08:27.303Z,1001.32
2018-12-23T16:09:27.309Z,1001.21
2018-12-23T16:10:27.287Z,1001.11
2018-12-23T16:11:27.274Z,1001.13
2018-12-23T16:12:27.259Z,1001.15
2018-12-23T16:13:27.245Z,1001.14
2018-12-23T16:14:27.252Z,1001.19
2018-12-23T16:15:27.227Z,1001.19
2018-12-23T16:16:27.210Z,1001.24
2018-12-23T16:17:27.200Z,1001.23
2018-12-23T16:18:27.188Z,1001.21
2018-12-23T16:19:27.195Z,1001.17
2018-12-23T16:20:27.164Z,1001.15
2018-12-23T16:21:27.153Z,1001.15
2018-12-23T16:22:27.140Z,1001.12
2018-12-23T16:23:27.130Z,1001.18
2018-12-23T16:24:27.161Z,1001.16
2018-12-23T16:25:27.108Z,1001.13
2018-12-23T16:26:27.096Z,1001.13
2018-12-23T16:27:27.085Z,1001.11
2018-12-23T16:28:27.075Z,1001.10
2018-12-23T16:29:27.062Z,1001.21
2018-12-23T16:30:27.070Z,1001.15
2018-12-23T16:31:27.045Z,1001.19
2018-12-23T16:32:27.026Z,1001.08
2018-12-23T16:33:27.019Z,1001.11
2018-12-23T16:34:27.009Z,1001.10
2018-12-23T16:35:27.010Z,1001.00
2018-12-23T16:36:26.981Z,1000.98
2018-12-23T16:37:26.969Z,1000.98
2018-12-23T16:38:26.959Z,1000.92
2018-12-23T16:39:26.948Z,1000.92
2018-12-23T16:40:26.955Z,1000.92
2018-12-23T16:41:26.927Z,1000.96
2018-12-23T16:42:26.912Z,1000.93
2018-12-23T16:43:26.900Z,1000.98
2018-12-23T16:44:26.890Z,1000.98
2018-12-23T16:45:26.899Z,1000.97
2018-12-23T16:46:26.867Z,1000.93
2018-12-23T16:47:26.860Z,1000.97
2018-12-23T16:48:26.848Z,1000.90
2018-12-23T16:49:26.833Z,1000.89
2018-12-23T16:50:26.838Z,1000.87
2018-12-23T16:51:26.810Z,1000.88
2018-12-23T16:52:26.798Z,1000.90
2018-12-23T16:53:26.789Z,1000.84
2018-12-23T16:54:26.775Z,1000.86
2018-12-23T16:55:26.781Z,1000.82
2018-12-23T16:56:26.756Z,1000.89
2018-12-23T16:57:26.743Z,1000.87
2018-12-23T16:58:26.732Z,1000.84
2018-12-23T16:59:26.721Z,1000.73
2018-12-23T17:00:26.726Z,1000.76
2018-12-23T17:01:26.696Z,1000.66
2018-12-23T17:02:26.684Z,1000.61
2018-12-23T17:03:26.673Z,1000.54
2018-12-23T17:04:26.660Z,1000.49
2018-12-23T17:05:26.666Z,1000.47
2018-12-23T17:06:26.639Z,1000.41
2018-12-23T17:07:26.626Z,1000.35
2018-12-23T17:08:26.616Z,1000.33
2018-12-23T17:09:26.608Z,1000.24
2018-12-23T17:10:26.699Z,1000.24
2018-12-23T17:11:26.582Z,1000.27
2018-12-23T17:12:26.573Z,1000.22
2018-12-23T17:13:26.557Z,1000.22
2018-12-23T17:14:26.545Z,1000.19
2018-12-23T17:15:26.555Z,1000.14
2018-12-23T17:16:26.525Z,1000.20
2018-12-23T17:17:26.512Z,1000.18
2018-12-23T17:18:26.503Z,1000.17
2018-12-23T17:19:26.491Z,1000.17
2018-12-23T17:20:26.498Z,1000.18
2018-12-23T17:21:26.469Z,1000.13
2018-12-23T17:22:26.456Z,1000.16
2018-12-23T17:23:26.443Z,1000.17
2018-12-23T17:24:26.432Z,1000.21
2018-12-23T17:25:26.459Z,1000.17
2018-12-23T17:26:26.410Z,1000.20
2018-12-23T17:27:26.399Z,1000.25
2018-12-23T17:28:28.222Z,1000.19
2018-12-23T17:29:26.375Z,1000.22
2018-12-23T17:30:26.363Z,1000.18
2018-12-23T17:31:26.371Z,1000.20
2018-12-23T17:32:26.340Z,1000.21
2018-12-23T17:33:26.328Z,1000.17
2018-12-23T17:34:26.330Z,1000.20
2018-12-23T17:35:26.307Z,1000.26
2018-12-23T17:36:26.313Z,1000.30
2018-12-23T17:37:26.286Z,1000.34
2018-12-23T17:38:26.275Z,1000.36
2018-12-23T17:39:26.260Z,1000.32
2018-12-23T17:40:26.251Z,1000.28
2018-12-23T17:41:26.258Z,1000.33
2018-12-23T17:42:26.230Z,1000.37
2018-12-23T17:43:26.215Z,1000.36
2018-12-23T17:44:26.204Z,1000.34
2018-12-23T17:45:26.256Z,1000.38
2018-12-23T17:46:26.208Z,1000.31
2018-12-23T17:47:26.170Z,1000.32
2018-12-23T17:48:26.157Z,1000.32
2018-12-23T17:49:26.145Z,1000.38
2018-12-23T17:50:26.137Z,1000.40
2018-12-23T17:51:26.124Z,1000.37
2018-12-23T17:52:26.134Z,1000.38
2018-12-23T17:53:26.103Z,1000.30
2018-12-23T17:54:26.089Z,1000.31
2018-12-23T17:55:26.078Z,1000.30
2018-12-23T17:56:26.069Z,1000.30
2018-12-23T17:57:26.079Z,1000.30
2018-12-23T17:58:26.046Z,1000.25
2018-12-23T17:59:26.034Z,1000.20
2018-12-23T18:00:26.025Z,1000.24
2018-12-23T18:01:26.018Z,1000.27
2018-12-23T18:02:26.000Z,1000.31
2018-12-23T18:03:26.011Z,1000.35
2018-12-23T18:04:25.976Z,1000.35
2018-12-23T18:05:25.976Z,1000.26
2018-12-23T18:06:25.957Z,1000.21
2018-12-23T18:07:25.947Z,1000.17
2018-12-23T18:08:25.949Z,1000.15
2018-12-23T18:09:25.919Z,1000.21
2018-12-23T18:10:25.909Z,1000.24
2018-12-23T18:11:25.919Z,1000.24
2018-12-23T18:12:25.921Z,1000.26
2018-12-23T18:13:25.916Z,1000.32
2018-12-23T18:14:25.913Z,1000.22
2018-12-23T18:15:27.058Z,1000.21
2018-12-23T18:16:25.868Z,1000.18
2018-12-23T18:17:25.828Z,1000.16
2018-12-23T18:18:25.839Z,1000.28
2018-12-23T18:19:25.804Z,1000.24
2018-12-23T18:20:25.799Z,1000.18
2018-12-23T18:21:25.784Z,1000.22
2018-12-23T18:22:25.778Z,1000.23
2018-12-23T18:23:25.780Z,1000.23
2018-12-23T18:24:25.748Z,1000.24
2018-12-23T18:25:25.737Z,1000.27
2018-12-23T18:26:25.729Z,1000.33
2018-12-23T18:27:25.716Z,1000.31
2018-12-23T18:28:25.726Z,1000.36
2018-12-23T18:29:25.695Z,1000.35
2018-12-23T18:30:25.679Z,1000.31
2018-12-23T18:31:25.668Z,1000.33
2018-12-23T18:32:25.657Z,1000.38
2018-12-23T18:33:25.672Z,1000.36
2018-12-23T18:34:25.633Z,1000.37
2018-12-23T18:35:25.623Z,1000.29
2018-12-23T18:36:25.611Z,1000.31
2018-12-23T18:37:25.600Z,1000.28
2018-12-23T18:38:25.635Z,1000.32
2018-12-23T18:39:25.575Z,1000.33
2018-12-23T18:40:33.137Z,1000.23
2018-12-23T18:41:26.554Z,1000.25
2018-12-23T18:42:25.542Z,1000.27
2018-12-23T18:43:25.532Z,1000.27
2018-12-23T18:44:25.537Z,1000.27
2018-12-23T18:45:25.508Z,1000.23
2018-12-23T18:46:25.497Z,1000.23
2018-12-23T18:47:25.485Z,1000.18
2018-12-23T18:48:25.474Z,1000.11
2018-12-23T18:49:25.481Z,1000.10
2018-12-23T18:50:25.450Z,1000.10
2018-12-23T18:51:25.483Z,1000.13
2018-12-23T18:52:25.430Z,1000.06
2018-12-23T18:53:25.418Z,1000.08
2018-12-23T18:54:25.422Z,1000.06
2018-12-23T18:55:25.394Z,1000.04
2018-12-23T18:56:25.389Z,1000.09
2018-12-23T18:57:25.372Z,1000.08
2018-12-23T18:58:25.361Z,1000.08
2018-12-23T18:59:25.372Z,1000.10
2018-12-23T19:00:25.343Z,1000.17
2018-12-23T19:01:25.324Z,1000.14
2018-12-23T19:02:25.314Z,1000.13
2018-12-23T19:03:25.305Z,1000.06
2018-12-23T19:04:25.292Z,1000.06
2018-12-23T19:05:25.299Z,1000.03
2018-12-23T19:06:25.268Z,1000.06
2018-12-23T19:07:25.257Z,1000.13
2018-12-23T19:08:25.249Z,1000.15
2018-12-23T19:09:25.235Z,1000.10
2018-12-23T19:10:25.248Z,1000.03
2018-12-23T19:11:25.211Z,1000.10
2018-12-23T19:12:25.204Z,1000.08
2018-12-23T19:13:25.270Z,1000.07
2018-12-23T19:14:25.178Z,1000.11
2018-12-23T19:15:25.183Z,1000.11
2018-12-23T19:16:25.156Z,1000.12
2018-12-23T19:17:25.141Z,1000.14
2018-12-23T19:18:25.134Z,1000.12
2018-12-23T19:19:25.119Z,1000.07
2018-12-23T19:20:25.128Z,1000.08
2018-12-23T19:21:25.097Z,1000.03